Rural Grove, New York
Current Conditions -  °F | °C
As of 2:15 PM on Thursday 30 Oct 2014 (Local Time) from KNY0 Reporting Station
Overcast Overcast  
Wind Chill: 45°   Ceiling: 4700
Heat Index: 49°   Visibility: 10mi
Dew Point: 35°   Wind: 12mph
Humidity: 58%   Direction: 300°WNW
Pressure: 29.97"   Gusts: 17mph
Location:  42.8384°N, 74.4592°W
Report Text: KNY0 301815Z AUTO 30010G15KT 10SM SCT041 OVC047 10/02 A2997 RMK AO2 T00960016
Loading
Personal Weather Stations






























Interactive Weather Map
Tropical Storm Tracking
New forecast layout! Learn more

10-Day Weather Forecast

Advertisements
Track Severe Weather on mobile